Time;durP1;ratioP1;P1;durP2;ratioP2;P2;SDS_P1;SDS_P2;PMS_P1;PMS_P2;Temp;Humidity;BMP_temperature;BMP_pressure;BME280_temperature;BME280_humidity;BME280_pressure;Samples;Min_cycle;Max_cycle;Signal;HPM_P1;HPM_P2
2024/03/10 00:04:07;;;;;;;26.73;19.92;;;;;;;;;;10124915;28;20127;-73
2024/03/10 00:09:01;;;;;;;28.60;20.88;;;;;;;;;;10125739;28;20134;-73
2024/03/10 00:13:55;;;;;;;30.10;23.25;;;;;;;;;;10127697;28;20036;-71
2024/03/10 00:18:49;;;;;;;31.48;23.88;;;;;;;;;;10130843;28;20049;-74
2024/03/10 00:23:43;;;;;;;29.10;23.60;;;;;;;;;;10129831;28;20056;-74
2024/03/10 00:28:37;;;;;;;35.08;27.08;;;;;;;;;;10122705;28;20123;-73
2024/03/10 00:33:33;;;;;;;40.92;26.40;;;;;;;;;;10132201;28;20072;-75
2024/03/10 00:38:27;;;;;;;41.10;27.17;;;;;;;;;;10128225;28;20049;-73
2024/03/10 00:43:22;;;;;;;61.53;35.85;;;;;;;;;;10127941;28;20064;-73
2024/03/10 00:48:17;;;;;;;91.07;34.38;;;;;;;;;;10131539;28;20036;-72
2024/03/10 00:53:11;;;;;;;60.30;33.08;;;;;;;;;;10129531;28;20098;-74
2024/03/10 00:58:05;;;;;;;105.43;34.60;;;;;;;;;;10128480;28;20475;-72
2024/03/10 01:03:01;;;;;;;106.82;33.55;;;;;;;;;;10125738;28;20051;-72
2024/03/10 01:07:55;;;;;;;152.77;42.67;;;;;;;;;;10129298;28;20048;-72
2024/03/10 01:12:50;;;;;;;144.65;41.47;;;;;;;;;;10129799;28;20146;-73
2024/03/10 01:17:46;;;;;;;165.05;45.90;;;;;;;;;;10122385;28;20049;-72
2024/03/10 01:22:42;;;;;;;202.23;48.15;;;;;;;;;;10125699;28;20107;-72
2024/03/10 01:27:36;;;;;;;71.82;33.90;;;;;;;;;;10123996;28;20734;-72
2024/03/10 01:32:31;;;;;;;78.18;40.05;;;;;;;;;;10128569;28;20059;-72
2024/03/10 01:37:26;;;;;;;60.15;36.30;;;;;;;;;;10122984;28;20057;-72
2024/03/10 01:42:20;;;;;;;56.30;32.83;;;;;;;;;;10127130;28;20052;-72
2024/03/10 01:47:15;;;;;;;52.75;31.40;;;;;;;;;;10124657;28;20087;-72
2024/03/10 01:52:10;;;;;;;59.50;37.28;;;;;;;;;;10122664;28;20060;-72
2024/03/10 01:57:05;;;;;;;51.67;31.33;;;;;;;;;;10122303;28;20107;-73
2024/03/10 02:01:59;;;;;;;44.80;30.60;;;;;;;;;;10122287;28;20052;-72
2024/03/10 02:06:54;;;;;;;41.80;28.75;;;;;;;;;;10121034;28;20048;-73
2024/03/10 02:11:48;;;;;;;37.30;29.05;;;;;;;;;;10111189;28;20056;-72
2024/03/10 02:16:43;;;;;;;37.25;28.20;;;;;;;;;;10124954;28;20053;-72
2024/03/10 02:21:37;;;;;;;31.15;27.73;;;;;;;;;;10120443;28;20389;-71
2024/03/10 02:26:36;;;;;;;33.47;27.98;;;;;;;;;;10132635;28;20068;-73
2024/03/10 02:47:29;;;;;;;36.45;27.05;;;;;;;;;;10130079;28;20040;-72
2024/03/10 02:52:23;;;;;;;41.08;27.27;;;;;;;;;;10133472;28;20150;-73
2024/03/10 02:57:18;;;;;;;37.78;28.25;;;;;;;;;;10129293;28;20049;-73
2024/03/10 03:02:14;;;;;;;39.00;29.88;;;;;;;;;;10131345;28;20064;-73
2024/03/10 03:07:08;;;;;;;39.22;26.42;;;;;;;;;;10128236;28;20049;-72
2024/03/10 03:12:03;;;;;;;41.70;30.30;;;;;;;;;;10134819;28;20040;-72
2024/03/10 03:16:57;;;;;;;40.97;32.42;;;;;;;;;;10131785;28;20057;-71
2024/03/10 03:21:51;;;;;;;42.85;29.75;;;;;;;;;;10131371;28;20057;-73
2024/03/10 03:26:46;;;;;;;35.97;26.70;;;;;;;;;;10129803;28;20045;-72
2024/03/10 03:31:42;;;;;;;38.65;27.02;;;;;;;;;;10130027;28;20056;-74
2024/03/10 03:36:36;;;;;;;34.70;24.20;;;;;;;;;;10124456;28;20491;-74
2024/03/10 03:41:30;;;;;;;34.35;26.60;;;;;;;;;;10126986;28;20470;-74
2024/03/10 03:46:25;;;;;;;37.20;27.17;;;;;;;;;;10126896;28;20078;-74
2024/03/10 03:51:19;;;;;;;45.25;28.45;;;;;;;;;;10129978;28;20056;-76
2024/03/10 03:56:13;;;;;;;42.17;26.52;;;;;;;;;;10127146;28;20401;-75
2024/03/10 04:01:08;;;;;;;41.20;25.40;;;;;;;;;;10130284;28;20052;-75
2024/03/10 04:06:05;;;;;;;65.30;33.05;;;;;;;;;;10127912;28;20049;-76
2024/03/10 04:10:59;;;;;;;33.63;23.02;;;;;;;;;;10129524;28;20139;-75
2024/03/10 04:15:54;;;;;;;33.65;21.42;;;;;;;;;;10126521;28;20050;-76
2024/03/10 04:20:49;;;;;;;31.13;20.75;;;;;;;;;;10125939;28;20053;-77
2024/03/10 04:25:42;;;;;;;45.63;24.08;;;;;;;;;;10126043;28;20048;-79
2024/03/10 04:30:37;;;;;;;37.47;20.60;;;;;;;;;;10124936;28;20052;-80
2024/03/10 04:35:32;;;;;;;26.95;17.27;;;;;;;;;;10127165;28;20049;-77
2024/03/10 04:40:25;;;;;;;25.52;16.33;;;;;;;;;;10125752;28;20053;-78
2024/03/10 04:45:19;;;;;;;27.80;16.00;;;;;;;;;;10126528;28;20489;-79
2024/03/10 04:50:13;;;;;;;32.80;16.83;;;;;;;;;;10123829;28;20049;-78
2024/03/10 04:55:08;;;;;;;33.15;17.17;;;;;;;;;;10125015;28;20052;-77
2024/03/10 05:00:07;;;;;;;34.65;18.23;;;;;;;;;;10127317;28;20520;-78
2024/03/10 05:05:02;;;;;;;33.17;18.25;;;;;;;;;;10125211;28;20694;-78
2024/03/10 05:09:55;;;;;;;26.98;19.98;;;;;;;;;;10127381;28;20096;-79
2024/03/10 05:14:50;;;;;;;47.08;24.98;;;;;;;;;;10125475;28;20052;-78
2024/03/10 05:19:44;;;;;;;42.40;24.05;;;;;;;;;;10123550;28;20055;-79
2024/03/10 05:24:43;;;;;;;45.63;25.90;;;;;;;;;;10126605;28;20541;-78
2024/03/10 05:29:37;;;;;;;46.58;27.45;;;;;;;;;;10120670;28;20099;-79
2024/03/10 05:34:32;;;;;;;42.25;27.02;;;;;;;;;;10127598;28;20152;-78
2024/03/10 05:39:27;;;;;;;39.83;24.13;;;;;;;;;;10125217;28;20051;-77
2024/03/10 05:44:20;;;;;;;40.63;24.60;;;;;;;;;;10122579;28;20041;-79
2024/03/10 05:49:14;;;;;;;32.42;22.70;;;;;;;;;;10123511;28;20450;-77
2024/03/10 05:54:09;;;;;;;37.88;23.75;;;;;;;;;;10121914;28;20053;-79
2024/03/10 05:59:03;;;;;;;31.00;23.08;;;;;;;;;;10121422;28;20114;-78
2024/03/10 06:03:57;;;;;;;45.28;26.05;;;;;;;;;;10122116;28;20143;-78
2024/03/10 06:08:51;;;;;;;40.78;25.75;;;;;;;;;;10124534;28;20044;-79
2024/03/10 06:13:45;;;;;;;39.70;25.90;;;;;;;;;;10122056;28;20381;-79
2024/03/10 06:29:02;;;;;;;40.30;28.50;;;;;;;;;;10122288;28;20135;-79
2024/03/10 06:33:57;;;;;;;42.42;29.15;;;;;;;;;;10123799;28;20049;-79
2024/03/10 06:38:52;;;;;;;39.10;28.90;;;;;;;;;;10124774;28;20132;-79
2024/03/10 06:43:49;;;;;;;37.75;27.85;;;;;;;;;;10119291;28;20045;-79
2024/03/10 06:48:43;;;;;;;38.65;25.27;;;;;;;;;;10123203;28;20411;-78
2024/03/10 06:53:38;;;;;;;37.08;23.33;;;;;;;;;;10124541;28;20049;-78
2024/03/10 06:58:32;;;;;;;32.05;24.45;;;;;;;;;;10127638;28;20135;-80
2024/03/10 07:03:27;;;;;;;34.63;24.30;;;;;;;;;;10125164;28;20053;-81
2024/03/10 07:08:22;;;;;;;31.30;22.95;;;;;;;;;;10123872;28;20412;-85
2024/03/10 07:13:18;;;;;;;32.55;23.48;;;;;;;;;;10129640;28;20056;-79
2024/03/10 07:18:13;;;;;;;31.25;21.13;;;;;;;;;;10118406;28;20056;-80
2024/03/10 07:23:07;;;;;;;31.63;20.83;;;;;;;;;;10149063;28;20064;-79
2024/03/10 07:28:01;;;;;;;32.13;19.42;;;;;;;;;;10152157;28;20531;-79
2024/03/10 07:32:55;;;;;;;29.63;21.50;;;;;;;;;;10144678;28;20056;-79
2024/03/10 07:37:49;;;;;;;31.75;22.52;;;;;;;;;;10145267;28;20492;-80
2024/03/10 07:42:46;;;;;;;30.40;22.50;;;;;;;;;;10127546;28;20411;-81
2024/03/10 07:47:45;;;;;;;32.72;23.50;;;;;;;;;;10147285;28;20121;-81
2024/03/10 07:52:41;;;;;;;32.47;23.15;;;;;;;;;;10145569;28;20044;-80
2024/03/10 07:57:39;;;;;;;33.90;25.13;;;;;;;;;;10146384;28;20053;-80
2024/03/10 08:02:33;;;;;;;32.63;22.95;;;;;;;;;;10148217;28;20508;-79
2024/03/10 08:07:27;;;;;;;29.92;21.88;;;;;;;;;;10147356;28;20056;-80
2024/03/10 08:12:21;;;;;;;24.10;20.13;;;;;;;;;;10147624;28;20072;-80
2024/03/10 08:17:15;;;;;;;24.05;18.77;;;;;;;;;;10138703;28;20048;-80
2024/03/10 08:22:10;;;;;;;26.38;19.50;;;;;;;;;;10146943;28;20114;-81
2024/03/10 08:27:04;;;;;;;26.92;18.42;;;;;;;;;;10146596;28;20060;-86
2024/03/10 08:31:59;;;;;;;23.10;18.45;;;;;;;;;;10151705;28;20059;-80
2024/03/10 08:36:52;;;;;;;25.25;17.95;;;;;;;;;;10144315;28;20464;-79
2024/03/10 08:41:48;;;;;;;16.52;14.75;;;;;;;;;;10146585;28;20048;-83
2024/03/10 08:46:44;;;;;;;11.40;9.85;;;;;;;;;;10147015;28;20055;-80
2024/03/10 08:51:38;;;;;;;21.25;11.63;;;;;;;;;;10146511;28;20048;-78
2024/03/10 08:56:32;;;;;;;14.52;10.07;;;;;;;;;;10146256;28;20048;-80
2024/03/10 09:01:26;;;;;;;17.60;11.05;;;;;;;;;;10146105;28;20047;-80
2024/03/10 09:06:24;;;;;;;14.90;9.43;;;;;;;;;;10146355;28;20492;-80
2024/03/10 09:11:18;;;;;;;14.85;9.80;;;;;;;;;;10146005;28;20143;-83
2024/03/10 09:16:14;;;;;;;15.57;10.15;;;;;;;;;;10145930;28;20102;-80
2024/03/10 09:21:08;;;;;;;15.15;10.52;;;;;;;;;;10145391;28;20052;-78
2024/03/10 09:26:03;;;;;;;11.77;7.00;;;;;;;;;;10144933;28;20060;-77
2024/03/10 09:30:57;;;;;;;11.38;6.78;;;;;;;;;;10144804;28;20053;-79
2024/03/10 09:35:55;;;;;;;10.07;7.55;;;;;;;;;;10142860;28;20063;-79
2024/03/10 09:40:49;;;;;;;10.25;8.00;;;;;;;;;;10144046;28;20470;-78
2024/03/10 09:46:02;;;;;;;17.13;9.57;;;;;;;;;;10126523;28;20049;-79
2024/03/10 09:50:56;;;;;;;11.48;6.97;;;;;;;;;;10100941;28;20065;-78
2024/03/10 09:55:52;;;;;;;28.02;7.40;;;;;;;;;;10130457;28;20105;-77
2024/03/10 10:00:47;;;;;;;176.88;28.45;;;;;;;;;;10142981;28;20053;-77
2024/03/10 10:06:16;;;;;;;10.75;8.15;;;;;;;;;;10125229;28;20053;-77
2024/03/10 10:11:12;;;;;;;10.15;7.25;;;;;;;;;;10140521;28;20053;-77
2024/03/10 10:16:10;;;;;;;8.18;6.82;;;;;;;;;;10143121;28;20064;-77
2024/03/10 10:21:07;;;;;;;8.07;5.60;;;;;;;;;;10140575;28;20144;-77
2024/03/10 10:26:09;;;;;;;12.93;8.43;;;;;;;;;;10139630;28;20052;-77
2024/03/10 10:31:13;;;;;;;14.85;6.25;;;;;;;;;;10138857;28;20052;-77
2024/03/10 10:36:09;;;;;;;9.13;6.60;;;;;;;;;;10138528;28;20052;-76
2024/03/10 10:41:05;;;;;;;15.90;7.03;;;;;;;;;;10140324;28;20480;-79
2024/03/10 10:45:59;;;;;;;14.13;7.15;;;;;;;;;;10144946;28;20049;-77
2024/03/10 10:50:52;;;;;;;16.33;6.68;;;;;;;;;;10148091;28;20045;-77
2024/03/10 10:55:47;;;;;;;7.30;6.18;;;;;;;;;;10129488;28;20053;-77
2024/03/10 11:00:40;;;;;;;10.45;6.40;;;;;;;;;;10126065;28;20056;-77
2024/03/10 11:05:36;;;;;;;9.25;5.47;;;;;;;;;;10147583;28;20044;-76
2024/03/10 11:10:47;;;;;;;10.60;6.20;;;;;;;;;;10145138;28;20049;-76
2024/03/10 11:16:13;;;;;;;13.25;6.35;;;;;;;;;;10139596;28;20056;-76
2024/03/10 11:21:13;;;;;;;11.27;5.80;;;;;;;;;;10146107;28;20504;-76
2024/03/10 11:26:09;;;;;;;11.60;7.40;;;;;;;;;;10141737;28;20909;-76
2024/03/10 11:31:03;;;;;;;14.23;6.18;;;;;;;;;;10145088;28;20056;-75
2024/03/10 11:35:58;;;;;;;6.30;3.20;;;;;;;;;;10128420;28;20048;-75
2024/03/10 11:41:07;;;;;;;2.40;2.10;;;;;;;;;;10140835;28;20147;-76
2024/03/10 11:46:04;;;;;;;1.15;1.05;;;;;;;;;;10134030;28;20056;-76
2024/03/10 11:50:57;;;;;;;2.00;1.20;;;;;;;;;;10146568;28;20130;-75
2024/03/10 11:56:00;;;;;;;0.80;0.80;;;;;;;;;;10136633;28;20048;-75
2024/03/10 12:00:54;;;;;;;3.45;2.63;;;;;;;;;;10140096;28;20052;-76
2024/03/10 12:05:49;;;;;;;2.72;1.30;;;;;;;;;;10144131;28;20139;-77
2024/03/10 12:10:43;;;;;;;5.07;1.15;;;;;;;;;;10146706;28;20051;-80
2024/03/10 12:15:37;;;;;;;0.88;0.80;;;;;;;;;;10140010;28;20090;-75
2024/03/10 12:20:30;;;;;;;1.08;0.80;;;;;;;;;;10142095;28;20049;-75
2024/03/10 12:25:24;;;;;;;1.45;1.35;;;;;;;;;;10140444;28;20064;-75
2024/03/10 12:30:19;;;;;;;1.25;1.15;;;;;;;;;;10121075;28;20040;-74
2024/03/10 12:35:14;;;;;;;5.63;3.47;;;;;;;;;;10133059;28;20061;-76
2024/03/10 12:40:08;;;;;;;4.18;2.63;;;;;;;;;;10125099;28;20056;-76
2024/03/10 12:45:02;;;;;;;4.72;3.67;;;;;;;;;;10126202;28;20060;-75
2024/03/10 12:49:56;;;;;;;9.77;8.40;;;;;;;;;;10130927;28;20393;-76
2024/03/10 12:54:50;;;;;;;12.07;10.98;;;;;;;;;;10115314;28;20076;-76
2024/03/10 12:59:44;;;;;;;17.33;13.68;;;;;;;;;;10137692;28;20060;-76
2024/03/10 13:04:38;;;;;;;19.25;15.13;;;;;;;;;;10138848;28;20082;-78
2024/03/10 13:09:32;;;;;;;3.80;1.77;;;;;;;;;;10145524;28;20055;-76
2024/03/10 13:14:27;;;;;;;2.60;1.70;;;;;;;;;;10123445;28;20056;-75
2024/03/10 13:19:21;;;;;;;1.00;0.90;;;;;;;;;;10124471;28;20053;-75
2024/03/10 13:24:15;;;;;;;1.20;1.15;;;;;;;;;;10137344;28;20432;-76
2024/03/10 13:29:09;;;;;;;2.75;2.50;;;;;;;;;;10136927;28;20052;-74
2024/03/10 13:34:04;;;;;;;1.88;1.63;;;;;;;;;;10138080;28;20052;-75
2024/03/10 13:38:58;;;;;;;3.50;2.70;;;;;;;;;;10136882;28;20052;-75
2024/03/10 13:43:52;;;;;;;6.13;4.13;;;;;;;;;;10140199;28;20056;-73
2024/03/10 13:48:47;;;;;;;2.47;1.80;;;;;;;;;;10138432;28;20056;-76
2024/03/10 13:53:40;;;;;;;4.93;3.63;;;;;;;;;;10136475;28;20063;-74
2024/03/10 13:58:34;;;;;;;5.95;4.07;;;;;;;;;;10127703;28;20479;-75
2024/03/10 14:03:28;;;;;;;2.40;1.98;;;;;;;;;;10140020;28;20048;-73
2024/03/10 14:08:22;;;;;;;3.25;2.38;;;;;;;;;;10140338;28;20086;-73
2024/03/10 14:13:16;;;;;;;3.13;1.25;;;;;;;;;;10142147;28;20063;-74
2024/03/10 14:18:13;;;;;;;2.08;1.70;;;;;;;;;;10141764;28;20049;-74
2024/03/10 14:23:07;;;;;;;1.50;1.40;;;;;;;;;;10134255;28;20056;-74
2024/03/10 14:28:02;;;;;;;1.20;1.10;;;;;;;;;;10115826;28;20092;-75
2024/03/10 14:32:56;;;;;;;1.60;1.50;;;;;;;;;;10134094;28;20581;-74
2024/03/10 14:37:52;;;;;;;22.13;16.27;;;;;;;;;;10129673;28;20722;-74
2024/03/10 14:42:53;;;;;;;9.82;7.57;;;;;;;;;;10135662;28;20087;-76
2024/03/10 14:47:51;;;;;;;2.63;2.22;;;;;;;;;;10123467;28;20147;-75
2024/03/10 14:52:48;;;;;;;2.10;1.80;;;;;;;;;;10140004;28;20467;-73
2024/03/10 14:57:42;;;;;;;5.72;2.95;;;;;;;;;;10128007;28;20292;-73
2024/03/10 15:02:36;;;;;;;7.70;6.13;;;;;;;;;;10134176;28;20063;-73
2024/03/10 15:07:30;;;;;;;4.18;3.00;;;;;;;;;;10124326;28;20059;-72
2024/03/10 15:12:24;;;;;;;2.05;1.33;;;;;;;;;;10127325;28;20059;-73
2024/03/10 15:17:18;;;;;;;7.78;4.35;;;;;;;;;;10137331;28;20062;-73
2024/03/10 15:22:12;;;;;;;1.30;1.08;;;;;;;;;;10139726;28;20063;-75
2024/03/10 15:27:07;;;;;;;10.50;8.52;;;;;;;;;;10141403;28;20060;-73
2024/03/10 15:32:01;;;;;;;3.78;3.35;;;;;;;;;;10147960;28;20131;-73
2024/03/10 15:37:15;;;;;;;7.20;5.18;;;;;;;;;;10148691;28;20051;-73
2024/03/10 15:42:08;;;;;;;5.55;3.30;;;;;;;;;;10148285;28;20044;-73
2024/03/10 15:47:20;;;;;;;1.42;1.33;;;;;;;;;;10159442;28;20052;-74
2024/03/10 15:52:15;;;;;;;2.47;1.40;;;;;;;;;;10110703;28;20130;-73
2024/03/10 15:57:09;;;;;;;2.42;1.98;;;;;;;;;;10139759;28;20045;-73
2024/03/10 16:02:05;;;;;;;1.73;1.00;;;;;;;;;;10131810;28;20055;-74
2024/03/10 16:06:59;;;;;;;4.07;2.95;;;;;;;;;;10119119;28;20117;-73
2024/03/10 16:11:57;;;;;;;10.02;6.85;;;;;;;;;;10135137;28;20566;-74
2024/03/10 16:16:51;;;;;;;7.65;4.35;;;;;;;;;;10141098;28;20044;-74
2024/03/10 16:21:49;;;;;;;4.82;2.35;;;;;;;;;;10128568;28;20057;-74
2024/03/10 16:26:44;;;;;;;6.07;1.98;;;;;;;;;;10141518;28;20132;-75
2024/03/10 16:31:41;;;;;;;5.47;2.65;;;;;;;;;;10146709;28;20067;-76
2024/03/10 16:36:38;;;;;;;8.27;3.00;;;;;;;;;;10139900;28;20052;-74
2024/03/10 16:41:33;;;;;;;5.43;3.30;;;;;;;;;;10142028;28;20045;-73
2024/03/10 16:46:27;;;;;;;4.45;3.72;;;;;;;;;;10139566;28;20082;-73
2024/03/10 16:51:22;;;;;;;4.15;3.20;;;;;;;;;;10144725;28;20416;-74
2024/03/10 16:56:17;;;;;;;6.18;2.90;;;;;;;;;;10145014;28;20060;-73
2024/03/10 17:01:11;;;;;;;7.65;4.68;;;;;;;;;;10142387;28;20063;-73
2024/03/10 17:06:08;;;;;;;3.20;2.33;;;;;;;;;;10135115;28;20160;-72
2024/03/10 17:11:10;;;;;;;18.38;11.10;;;;;;;;;;10140835;28;20048;-73
2024/03/10 17:16:07;;;;;;;4.07;2.38;;;;;;;;;;10124340;28;20052;-73
2024/03/10 17:21:01;;;;;;;2.05;1.90;;;;;;;;;;10140914;28;20056;-73
2024/03/10 17:25:57;;;;;;;4.68;2.63;;;;;;;;;;10140255;28;20048;-72
2024/03/10 17:30:50;;;;;;;4.65;2.15;;;;;;;;;;10125627;28;20060;-72
2024/03/10 17:35:46;;;;;;;2.53;1.90;;;;;;;;;;10140531;28;20672;-72
2024/03/10 17:40:41;;;;;;;7.32;4.15;;;;;;;;;;10136237;28;20049;-72
2024/03/10 17:45:35;;;;;;;7.68;2.78;;;;;;;;;;10135672;28;20740;-73
2024/03/10 19:58:48;;;;;;;8.90;6.93;;;;;;;;;;10143624;28;20052;-72
2024/03/10 20:03:43;;;;;;;4.35;3.95;;;;;;;;;;10141226;28;20423;-72
2024/03/10 20:08:39;;;;;;;12.27;5.93;;;;;;;;;;10142070;28;20044;-73
2024/03/10 20:13:33;;;;;;;6.13;4.95;;;;;;;;;;10138332;28;20102;-74
2024/03/10 20:18:28;;;;;;;5.10;3.72;;;;;;;;;;10140275;28;20064;-72
2024/03/10 20:23:25;;;;;;;9.18;5.78;;;;;;;;;;10138150;28;20057;-73
2024/03/10 20:28:22;;;;;;;6.63;3.70;;;;;;;;;;10135042;28;20110;-75
2024/03/10 20:33:16;;;;;;;10.20;3.85;;;;;;;;;;10140685;28;20143;-75
2024/03/10 20:38:10;;;;;;;8.20;3.05;;;;;;;;;;10138981;28;20049;-75
2024/03/10 20:43:06;;;;;;;8.98;3.80;;;;;;;;;;10138032;28;20049;-75
2024/03/10 20:48:05;;;;;;;5.57;3.10;;;;;;;;;;10129954;28;20095;-77
2024/03/10 20:53:01;;;;;;;3.03;2.55;;;;;;;;;;10127791;28;20087;-76
2024/03/10 20:57:55;;;;;;;5.32;2.55;;;;;;;;;;10130909;28;20056;-74
2024/03/10 21:02:49;;;;;;;2.20;2.00;;;;;;;;;;10118727;28;20099;-78
2024/03/10 21:07:44;;;;;;;2.90;1.70;;;;;;;;;;10129665;28;20488;-74
2024/03/10 21:12:40;;;;;;;4.35;2.22;;;;;;;;;;10124729;28;20045;-74
2024/03/10 21:17:35;;;;;;;5.43;2.22;;;;;;;;;;10126067;28;20052;-74
2024/03/10 21:22:30;;;;;;;3.72;1.90;;;;;;;;;;10126341;28;20054;-75
2024/03/10 21:27:24;;;;;;;5.75;2.30;;;;;;;;;;10125056;28;20045;-75
2024/03/10 21:32:19;;;;;;;4.18;2.10;;;;;;;;;;10129658;28;20492;-75
2024/03/10 21:37:12;;;;;;;3.60;2.50;;;;;;;;;;10126692;28;20117;-74
2024/03/10 21:42:06;;;;;;;4.53;3.13;;;;;;;;;;10123887;28;20080;-75
2024/03/10 21:47:00;;;;;;;5.75;3.53;;;;;;;;;;10125030;28;20051;-76
2024/03/10 21:51:54;;;;;;;6.25;3.65;;;;;;;;;;10124281;28;20522;-75
2024/03/10 21:56:49;;;;;;;8.77;6.93;;;;;;;;;;10128589;28;20110;-78
2024/03/10 22:01:44;;;;;;;5.97;5.38;;;;;;;;;;10115649;28;20044;-77
2024/03/10 22:06:40;;;;;;;5.53;3.55;;;;;;;;;;10120547;28;20051;-78
2024/03/10 22:11:34;;;;;;;4.45;2.63;;;;;;;;;;10124057;28;20076;-76
2024/03/10 22:16:29;;;;;;;6.65;2.95;;;;;;;;;;10122865;28;20137;-76
2024/03/10 22:21:22;;;;;;;6.50;3.58;;;;;;;;;;10122093;28;20076;-75
2024/03/10 22:26:16;;;;;;;6.88;5.43;;;;;;;;;;10123497;28;20047;-75
2024/03/10 22:31:10;;;;;;;6.03;4.35;;;;;;;;;;10119469;28;20139;-76
2024/03/10 22:36:06;;;;;;;7.82;5.53;;;;;;;;;;10119621;28;20127;-76
2024/03/10 22:41:00;;;;;;;9.32;5.55;;;;;;;;;;10130327;28;20123;-74
2024/03/10 22:45:54;;;;;;;12.65;6.43;;;;;;;;;;10131730;28;20056;-75
2024/03/10 22:50:48;;;;;;;4.93;3.30;;;;;;;;;;10129362;28;20056;-75
2024/03/10 22:55:44;;;;;;;4.97;2.95;;;;;;;;;;10130074;28;20565;-74
2024/03/10 23:00:45;;;;;;;2.35;1.85;;;;;;;;;;10128091;28;20510;-75
2024/03/10 23:05:40;;;;;;;5.22;2.50;;;;;;;;;;10133040;28;20167;-76
2024/03/10 23:10:38;;;;;;;5.80;2.92;;;;;;;;;;10135848;28;20045;-75
2024/03/10 23:15:34;;;;;;;9.70;4.95;;;;;;;;;;10134986;28;20071;-76
2024/03/10 23:20:27;;;;;;;6.85;3.50;;;;;;;;;;10119368;28;20047;-75
2024/03/10 23:25:23;;;;;;;6.32;3.30;;;;;;;;;;10133938;28;20135;-76
2024/03/10 23:30:18;;;;;;;5.35;3.63;;;;;;;;;;10133349;28;20083;-75
2024/03/10 23:35:12;;;;;;;4.72;3.72;;;;;;;;;;10116608;28;20040;-74
2024/03/10 23:40:10;;;;;;;4.47;4.07;;;;;;;;;;10132693;28;20053;-73
2024/03/10 23:45:08;;;;;;;14.70;10.93;;;;;;;;;;10115592;28;20462;-74
2024/03/10 23:50:04;;;;;;;18.42;7.38;;;;;;;;;;10130834;28;20056;-74
2024/03/10 23:54:58;;;;;;;12.85;8.48;;;;;;;;;;10129789;28;20052;-74
2024/03/10 23:59:52;;;;;;;9.63;6.32;;;;;;;;;;10127695;28;20049;-75
